sensor_id;sensor_type;location;lat;lon;timestamp;temperature;humidity
26757;DHT22;23848;49.798;10.228;2023-04-30T00:02:14;11.40;99.90
26757;DHT22;23848;49.798;10.228;2023-04-30T00:04:42;11.30;99.90
26757;DHT22;23848;49.798;10.228;2023-04-30T00:07:10;11.20;99.90
26757;DHT22;23848;49.798;10.228;2023-04-30T00:09:40;11.20;99.90
26757;DHT22;23848;49.798;10.228;2023-04-30T00:12:08;11.20;99.90
26757;DHT22;23848;49.798;10.228;2023-04-30T00:14:38;11.30;99.90
26757;DHT22;23848;49.798;10.228;2023-04-30T00:17:06;11.30;99.90
26757;DHT22;23848;49.798;10.228;2023-04-30T00:19:34;11.20;99.90
26757;DHT22;23848;49.798;10.228;2023-04-30T00:22:03;11.20;99.90
26757;DHT22;23848;49.798;10.228;2023-04-30T00:24:32;11.20;99.90
26757;DHT22;23848;49.798;10.228;2023-04-30T00:27:00;11.20;99.90
26757;DHT22;23848;49.798;10.228;2023-04-30T00:29:28;11.20;99.90
26757;DHT22;23848;49.798;10.228;2023-04-30T00:31:57;11.20;99.90
26757;DHT22;23848;49.798;10.228;2023-04-30T00:34:26;11.20;99.90
26757;DHT22;23848;49.798;10.228;2023-04-30T00:36:54;11.20;99.90
26757;DHT22;23848;49.798;10.228;2023-04-30T00:39:23;11.20;99.90
26757;DHT22;23848;49.798;10.228;2023-04-30T00:41:51;11.10;99.90
26757;DHT22;23848;49.798;10.228;2023-04-30T00:44:19;11.10;99.90
26757;DHT22;23848;49.798;10.228;2023-04-30T00:46:48;11.10;99.90
26757;DHT22;23848;49.798;10.228;2023-04-30T00:49:19;11.10;99.90
26757;DHT22;23848;49.798;10.228;2023-04-30T00:51:47;11.10;99.90
26757;DHT22;23848;49.798;10.228;2023-04-30T00:54:19;11.10;99.90
26757;DHT22;23848;49.798;10.228;2023-04-30T00:56:48;11.10;99.90
26757;DHT22;23848;49.798;10.228;2023-04-30T00:59:16;11.00;99.90
26757;DHT22;23848;49.798;10.228;2023-04-30T01:01:44;11.00;99.90
26757;DHT22;23848;49.798;10.228;2023-04-30T01:04:13;11.00;99.90
26757;DHT22;23848;49.798;10.228;2023-04-30T01:06:43;11.00;99.90
26757;DHT22;23848;49.798;10.228;2023-04-30T01:09:12;11.00;99.90
26757;DHT22;23848;49.798;10.228;2023-04-30T01:11:51;11.00;99.90
26757;DHT22;23848;49.798;10.228;2023-04-30T01:14:29;11.00;99.90
26757;DHT22;23848;49.798;10.228;2023-04-30T01:17:05;11.00;99.90
26757;DHT22;23848;49.798;10.228;2023-04-30T01:19:40;11.00;99.90
26757;DHT22;23848;49.798;10.228;2023-04-30T01:22:13;11.00;99.90
26757;DHT22;23848;49.798;10.228;2023-04-30T01:24:58;11.00;99.90
26757;DHT22;23848;49.798;10.228;2023-04-30T01:27:51;10.90;99.90
26757;DHT22;23848;49.798;10.228;2023-04-30T01:30:26;10.90;99.90
26757;DHT22;23848;49.798;10.228;2023-04-30T01:32:55;10.80;99.90
26757;DHT22;23848;49.798;10.228;2023-04-30T01:35:33;10.90;99.90
26757;DHT22;23848;49.798;10.228;2023-04-30T01:38:08;10.80;99.90
26757;DHT22;23848;49.798;10.228;2023-04-30T01:40:43;10.80;99.90
26757;DHT22;23848;49.798;10.228;2023-04-30T01:43:20;10.80;99.90
26757;DHT22;23848;49.798;10.228;2023-04-30T01:45:58;10.80;99.90
26757;DHT22;23848;49.798;10.228;2023-04-30T01:48:36;10.80;99.90
26757;DHT22;23848;49.798;10.228;2023-04-30T01:51:15;10.80;99.90
26757;DHT22;23848;49.798;10.228;2023-04-30T01:53:46;10.80;99.90
26757;DHT22;23848;49.798;10.228;2023-04-30T01:56:26;10.80;99.90
26757;DHT22;23848;49.798;10.228;2023-04-30T01:58:56;10.80;99.90
26757;DHT22;23848;49.798;10.228;2023-04-30T02:01:25;10.80;99.90
26757;DHT22;23848;49.798;10.228;2023-04-30T02:03:54;10.80;99.90
26757;DHT22;23848;49.798;10.228;2023-04-30T02:06:24;10.70;99.90
26757;DHT22;23848;49.798;10.228;2023-04-30T02:08:55;10.80;99.90
26757;DHT22;23848;49.798;10.228;2023-04-30T02:11:29;10.70;99.90
26757;DHT22;23848;49.798;10.228;2023-04-30T02:13:59;10.70;99.90
26757;DHT22;23848;49.798;10.228;2023-04-30T02:16:27;10.70;99.90
26757;DHT22;23848;49.798;10.228;2023-04-30T02:18:55;10.60;99.90
26757;DHT22;23848;49.798;10.228;2023-04-30T02:21:24;10.60;99.90
26757;DHT22;23848;49.798;10.228;2023-04-30T02:23:53;10.50;99.90
26757;DHT22;23848;49.798;10.228;2023-04-30T02:26:21;10.50;99.90
26757;DHT22;23848;49.798;10.228;2023-04-30T02:28:54;10.60;99.90
26757;DHT22;23848;49.798;10.228;2023-04-30T02:31:23;10.60;99.90
26757;DHT22;23848;49.798;10.228;2023-04-30T02:33:52;10.60;99.90
26757;DHT22;23848;49.798;10.228;2023-04-30T02:36:22;10.60;99.90
26757;DHT22;23848;49.798;10.228;2023-04-30T02:38:53;10.60;99.90
26757;DHT22;23848;49.798;10.228;2023-04-30T02:41:21;10.50;99.90
26757;DHT22;23848;49.798;10.228;2023-04-30T02:43:50;10.50;99.90
26757;DHT22;23848;49.798;10.228;2023-04-30T02:46:20;10.50;99.90
26757;DHT22;23848;49.798;10.228;2023-04-30T02:48:53;10.60;99.90
26757;DHT22;23848;49.798;10.228;2023-04-30T02:51:27;10.50;99.90
26757;DHT22;23848;49.798;10.228;2023-04-30T02:53:55;10.50;99.90
26757;DHT22;23848;49.798;10.228;2023-04-30T02:56:23;10.50;99.90
26757;DHT22;23848;49.798;10.228;2023-04-30T02:58:56;10.50;99.90
26757;DHT22;23848;49.798;10.228;2023-04-30T03:01:26;10.50;99.90
26757;DHT22;23848;49.798;10.228;2023-04-30T03:03:56;10.50;99.90
26757;DHT22;23848;49.798;10.228;2023-04-30T03:06:25;10.60;99.90
26757;DHT22;23848;49.798;10.228;2023-04-30T03:08:53;10.50;99.90
26757;DHT22;23848;49.798;10.228;2023-04-30T03:11:23;10.50;99.90
26757;DHT22;23848;49.798;10.228;2023-04-30T03:13:54;10.50;99.90
26757;DHT22;23848;49.798;10.228;2023-04-30T03:16:24;10.60;99.90
26757;DHT22;23848;49.798;10.228;2023-04-30T03:18:53;10.70;99.90
26757;DHT22;23848;49.798;10.228;2023-04-30T03:21:22;10.60;99.90
26757;DHT22;23848;49.798;10.228;2023-04-30T03:23:50;10.60;99.90
26757;DHT22;23848;49.798;10.228;2023-04-30T03:26:19;10.60;99.90
26757;DHT22;23848;49.798;10.228;2023-04-30T03:28:47;10.60;99.90
26757;DHT22;23848;49.798;10.228;2023-04-30T03:31:15;10.60;99.90
26757;DHT22;23848;49.798;10.228;2023-04-30T03:33:44;10.60;99.90
26757;DHT22;23848;49.798;10.228;2023-04-30T03:36:12;10.50;99.90
26757;DHT22;23848;49.798;10.228;2023-04-30T03:38:41;10.60;99.90
26757;DHT22;23848;49.798;10.228;2023-04-30T03:41:10;10.50;99.90
26757;DHT22;23848;49.798;10.228;2023-04-30T03:43:38;10.60;99.90
26757;DHT22;23848;49.798;10.228;2023-04-30T03:46:08;10.50;99.90
26757;DHT22;23848;49.798;10.228;2023-04-30T03:48:36;10.50;99.90
26757;DHT22;23848;49.798;10.228;2023-04-30T03:51:05;10.50;99.90
26757;DHT22;23848;49.798;10.228;2023-04-30T03:53:35;10.40;99.90
26757;DHT22;23848;49.798;10.228;2023-04-30T03:56:09;10.50;99.90
26757;DHT22;23848;49.798;10.228;2023-04-30T03:58:38;10.50;99.90
26757;DHT22;23848;49.798;10.228;2023-04-30T04:01:06;10.40;99.90
26757;DHT22;23848;49.798;10.228;2023-04-30T04:03:34;10.40;99.90
26757;DHT22;23848;49.798;10.228;2023-04-30T04:06:03;10.40;99.90
26757;DHT22;23848;49.798;10.228;2023-04-30T04:08:33;10.40;99.90
26757;DHT22;23848;49.798;10.228;2023-04-30T04:11:03;10.40;99.90
26757;DHT22;23848;49.798;10.228;2023-04-30T04:13:33;10.30;99.90
26757;DHT22;23848;49.798;10.228;2023-04-30T04:16:03;10.30;99.90
26757;DHT22;23848;49.798;10.228;2023-04-30T04:18:34;10.30;99.90
26757;DHT22;23848;49.798;10.228;2023-04-30T04:21:03;10.20;99.90
26757;DHT22;23848;49.798;10.228;2023-04-30T04:23:35;10.10;99.90
26757;DHT22;23848;49.798;10.228;2023-04-30T04:26:04;10.20;99.90
26757;DHT22;23848;49.798;10.228;2023-04-30T04:28:36;10.20;99.90
26757;DHT22;23848;49.798;10.228;2023-04-30T04:31:07;10.20;99.90
26757;DHT22;23848;49.798;10.228;2023-04-30T04:33:35;10.20;99.90
26757;DHT22;23848;49.798;10.228;2023-04-30T04:36:04;10.10;99.90
26757;DHT22;23848;49.798;10.228;2023-04-30T04:38:32;10.20;99.90
26757;DHT22;23848;49.798;10.228;2023-04-30T04:41:00;10.30;99.90
26757;DHT22;23848;49.798;10.228;2023-04-30T04:43:28;10.20;99.90
26757;DHT22;23848;49.798;10.228;2023-04-30T04:46:03;10.20;99.90
26757;DHT22;23848;49.798;10.228;2023-04-30T04:48:32;10.30;99.90
26757;DHT22;23848;49.798;10.228;2023-04-30T04:51:02;10.20;99.90
26757;DHT22;23848;49.798;10.228;2023-04-30T04:53:30;10.20;99.90
26757;DHT22;23848;49.798;10.228;2023-04-30T04:56:02;10.20;99.90
26757;DHT22;23848;49.798;10.228;2023-04-30T04:58:30;10.20;99.90
26757;DHT22;23848;49.798;10.228;2023-04-30T05:01:03;10.30;99.90
26757;DHT22;23848;49.798;10.228;2023-04-30T05:03:34;10.30;99.90
26757;DHT22;23848;49.798;10.228;2023-04-30T05:06:04;10.40;99.90
26757;DHT22;23848;49.798;10.228;2023-04-30T05:08:33;10.50;99.90
26757;DHT22;23848;49.798;10.228;2023-04-30T05:11:02;10.50;99.90
26757;DHT22;23848;49.798;10.228;2023-04-30T05:13:33;10.50;99.90
26757;DHT22;23848;49.798;10.228;2023-04-30T05:16:02;10.60;99.90
26757;DHT22;23848;49.798;10.228;2023-04-30T05:18:31;10.70;99.90
26757;DHT22;23848;49.798;10.228;2023-04-30T05:21:02;10.80;99.90
26757;DHT22;23848;49.798;10.228;2023-04-30T05:23:33;10.80;99.90
26757;DHT22;23848;49.798;10.228;2023-04-30T05:26:04;10.80;99.90
26757;DHT22;23848;49.798;10.228;2023-04-30T05:28:32;10.90;99.90
26757;DHT22;23848;49.798;10.228;2023-04-30T05:31:02;10.80;99.90
26757;DHT22;23848;49.798;10.228;2023-04-30T05:33:31;10.80;99.90
26757;DHT22;23848;49.798;10.228;2023-04-30T05:36:00;10.80;99.90
26757;DHT22;23848;49.798;10.228;2023-04-30T05:38:34;10.80;99.90
26757;DHT22;23848;49.798;10.228;2023-04-30T05:41:04;10.80;99.90
26757;DHT22;23848;49.798;10.228;2023-04-30T05:43:34;10.80;99.90
26757;DHT22;23848;49.798;10.228;2023-04-30T05:46:06;10.80;99.90
26757;DHT22;23848;49.798;10.228;2023-04-30T05:48:36;10.70;99.90
26757;DHT22;23848;49.798;10.228;2023-04-30T05:51:09;10.90;99.90
26757;DHT22;23848;49.798;10.228;2023-04-30T05:53:43;10.90;99.90
26757;DHT22;23848;49.798;10.228;2023-04-30T05:56:11;10.90;99.90
26757;DHT22;23848;49.798;10.228;2023-04-30T05:58:39;10.90;99.90
26757;DHT22;23848;49.798;10.228;2023-04-30T06:01:09;11.00;99.90
26757;DHT22;23848;49.798;10.228;2023-04-30T06:03:38;11.10;99.90
26757;DHT22;23848;49.798;10.228;2023-04-30T06:06:06;11.20;99.90
26757;DHT22;23848;49.798;10.228;2023-04-30T06:08:38;11.20;99.90
26757;DHT22;23848;49.798;10.228;2023-04-30T06:11:10;11.30;99.90
26757;DHT22;23848;49.798;10.228;2023-04-30T06:13:42;11.30;99.90
26757;DHT22;23848;49.798;10.228;2023-04-30T06:16:19;11.60;99.90
26757;DHT22;23848;49.798;10.228;2023-04-30T06:18:48;11.60;99.90
26757;DHT22;23848;49.798;10.228;2023-04-30T06:21:21;11.70;99.90
26757;DHT22;23848;49.798;10.228;2023-04-30T06:23:54;11.80;99.90
26757;DHT22;23848;49.798;10.228;2023-04-30T06:26:29;11.80;99.90
26757;DHT22;23848;49.798;10.228;2023-04-30T06:29:02;12.00;99.90
26757;DHT22;23848;49.798;10.228;2023-04-30T06:31:34;12.00;99.90
26757;DHT22;23848;49.798;10.228;2023-04-30T06:34:03;12.10;99.90
26757;DHT22;23848;49.798;10.228;2023-04-30T06:36:37;12.20;99.90
26757;DHT22;23848;49.798;10.228;2023-04-30T06:39:06;12.30;99.90
26757;DHT22;23848;49.798;10.228;2023-04-30T06:41:49;12.30;99.90
26757;DHT22;23848;49.798;10.228;2023-04-30T06:44:19;12.40;99.90
26757;DHT22;23848;49.798;10.228;2023-04-30T06:46:55;12.50;99.90
26757;DHT22;23848;49.798;10.228;2023-04-30T06:49:27;12.50;99.90
26757;DHT22;23848;49.798;10.228;2023-04-30T06:51:56;12.60;99.90
26757;DHT22;23848;49.798;10.228;2023-04-30T06:54:24;12.60;99.90
26757;DHT22;23848;49.798;10.228;2023-04-30T06:57:05;12.70;99.90
26757;DHT22;23848;49.798;10.228;2023-04-30T06:59:37;12.70;99.90
26757;DHT22;23848;49.798;10.228;2023-04-30T07:02:06;12.90;99.90
26757;DHT22;23848;49.798;10.228;2023-04-30T07:04:34;13.00;99.90
26757;DHT22;23848;49.798;10.228;2023-04-30T07:07:03;13.00;99.90
26757;DHT22;23848;49.798;10.228;2023-04-30T07:09:31;13.10;99.90
26757;DHT22;23848;49.798;10.228;2023-04-30T07:12:17;13.10;99.90
26757;DHT22;23848;49.798;10.228;2023-04-30T07:14:45;13.20;99.90
26757;DHT22;23848;49.798;10.228;2023-04-30T07:17:30;13.40;99.90
26757;DHT22;23848;49.798;10.228;2023-04-30T07:20:08;13.40;99.90
26757;DHT22;23848;49.798;10.228;2023-04-30T07:22:38;13.40;99.90
26757;DHT22;23848;49.798;10.228;2023-04-30T07:25:07;13.40;99.90
26757;DHT22;23848;49.798;10.228;2023-04-30T07:27:37;13.50;99.90
26757;DHT22;23848;49.798;10.228;2023-04-30T07:30:08;13.40;99.90
26757;DHT22;23848;49.798;10.228;2023-04-30T07:32:41;13.60;99.90
26757;DHT22;23848;49.798;10.228;2023-04-30T07:35:10;13.70;99.90
26757;DHT22;23848;49.798;10.228;2023-04-30T07:37:46;13.70;99.90
26757;DHT22;23848;49.798;10.228;2023-04-30T07:40:18;13.80;99.90
26757;DHT22;23848;49.798;10.228;2023-04-30T07:43:01;13.70;99.90
26757;DHT22;23848;49.798;10.228;2023-04-30T07:45:32;13.90;99.90
26757;DHT22;23848;49.798;10.228;2023-04-30T07:48:04;13.90;99.90
26757;DHT22;23848;49.798;10.228;2023-04-30T07:50:35;14.00;99.90
26757;DHT22;23848;49.798;10.228;2023-04-30T07:53:05;14.10;99.90
26757;DHT22;23848;49.798;10.228;2023-04-30T07:56:00;14.20;99.90
26757;DHT22;23848;49.798;10.228;2023-04-30T07:58:35;14.20;99.90
26757;DHT22;23848;49.798;10.228;2023-04-30T08:01:08;14.30;99.90
26757;DHT22;23848;49.798;10.228;2023-04-30T08:03:51;14.30;99.90
26757;DHT22;23848;49.798;10.228;2023-04-30T08:06:27;14.40;99.90
26757;DHT22;23848;49.798;10.228;2023-04-30T08:08:58;14.40;99.90
26757;DHT22;23848;49.798;10.228;2023-04-30T08:11:26;14.60;99.90
26757;DHT22;23848;49.798;10.228;2023-04-30T08:13:57;14.70;99.90
26757;DHT22;23848;49.798;10.228;2023-04-30T08:16:25;14.70;99.90
26757;DHT22;23848;49.798;10.228;2023-04-30T08:18:55;14.80;99.90
26757;DHT22;23848;49.798;10.228;2023-04-30T08:21:23;14.70;99.90
26757;DHT22;23848;49.798;10.228;2023-04-30T08:23:55;14.70;99.90
26757;DHT22;23848;49.798;10.228;2023-04-30T08:26:26;14.90;99.90
26757;DHT22;23848;49.798;10.228;2023-04-30T08:28:57;15.00;99.90
26757;DHT22;23848;49.798;10.228;2023-04-30T08:31:27;15.00;99.90
26757;DHT22;23848;49.798;10.228;2023-04-30T08:33:57;15.00;99.90
26757;DHT22;23848;49.798;10.228;2023-04-30T08:36:28;15.10;99.90
26757;DHT22;23848;49.798;10.228;2023-04-30T08:39:02;15.00;99.90
26757;DHT22;23848;49.798;10.228;2023-04-30T08:41:35;15.10;99.90
26757;DHT22;23848;49.798;10.228;2023-04-30T08:44:05;15.10;99.90
26757;DHT22;23848;49.798;10.228;2023-04-30T08:46:38;15.00;99.90
26757;DHT22;23848;49.798;10.228;2023-04-30T08:49:09;15.10;99.90
26757;DHT22;23848;49.798;10.228;2023-04-30T08:51:37;15.00;99.90
26757;DHT22;23848;49.798;10.228;2023-04-30T08:54:12;14.90;99.90
26757;DHT22;23848;49.798;10.228;2023-04-30T08:56:42;14.80;99.90
26757;DHT22;23848;49.798;10.228;2023-04-30T08:59:13;14.80;99.90
26757;DHT22;23848;49.798;10.228;2023-04-30T09:01:45;15.00;99.90
26757;DHT22;23848;49.798;10.228;2023-04-30T09:04:23;14.90;99.90
26757;DHT22;23848;49.798;10.228;2023-04-30T09:06:56;15.00;99.90
26757;DHT22;23848;49.798;10.228;2023-04-30T09:09:36;15.10;99.90
26757;DHT22;23848;49.798;10.228;2023-04-30T09:12:13;15.10;99.90
26757;DHT22;23848;49.798;10.228;2023-04-30T09:14:57;15.10;99.90
26757;DHT22;23848;49.798;10.228;2023-04-30T09:17:31;15.10;99.90
26757;DHT22;23848;49.798;10.228;2023-04-30T09:20:11;15.30;99.90
26757;DHT22;23848;49.798;10.228;2023-04-30T09:22:44;15.60;99.90
26757;DHT22;23848;49.798;10.228;2023-04-30T09:25:18;15.50;99.90
26757;DHT22;23848;49.798;10.228;2023-04-30T09:28:16;15.40;99.90
26757;DHT22;23848;49.798;10.228;2023-04-30T09:30:56;15.40;99.90
26757;DHT22;23848;49.798;10.228;2023-04-30T09:33:50;15.70;99.90
26757;DHT22;23848;49.798;10.228;2023-04-30T09:36:31;15.70;99.90
26757;DHT22;23848;49.798;10.228;2023-04-30T09:39:11;15.80;99.90
26757;DHT22;23848;49.798;10.228;2023-04-30T09:41:46;15.90;99.90
26757;DHT22;23848;49.798;10.228;2023-04-30T09:44:30;16.00;99.90
26757;DHT22;23848;49.798;10.228;2023-04-30T09:47:12;16.00;99.90
26757;DHT22;23848;49.798;10.228;2023-04-30T09:49:58;16.20;99.90
26757;DHT22;23848;49.798;10.228;2023-04-30T09:52:50;16.30;99.90
26757;DHT22;23848;49.798;10.228;2023-04-30T09:55:43;16.30;99.90
26757;DHT22;23848;49.798;10.228;2023-04-30T09:58:55;16.60;99.90
26757;DHT22;23848;49.798;10.228;2023-04-30T10:01:40;16.70;99.90
26757;DHT22;23848;49.798;10.228;2023-04-30T10:04:37;16.60;99.90
26757;DHT22;23848;49.798;10.228;2023-04-30T10:07:24;16.50;99.90
26757;DHT22;23848;49.798;10.228;2023-04-30T10:10:14;16.30;99.90
26757;DHT22;23848;49.798;10.228;2023-04-30T10:13:09;16.30;99.90
26757;DHT22;23848;49.798;10.228;2023-04-30T10:16:11;16.30;99.90
26757;DHT22;23848;49.798;10.228;2023-04-30T10:18:54;16.30;99.90
26757;DHT22;23848;49.798;10.228;2023-04-30T10:21:34;16.20;99.90
26757;DHT22;23848;49.798;10.228;2023-04-30T10:24:28;16.20;99.90
26757;DHT22;23848;49.798;10.228;2023-04-30T10:27:05;16.40;99.90
26757;DHT22;23848;49.798;10.228;2023-04-30T10:29:40;16.50;99.90
26757;DHT22;23848;49.798;10.228;2023-04-30T10:32:23;16.40;99.90
26757;DHT22;23848;49.798;10.228;2023-04-30T10:35:19;16.30;99.90
26757;DHT22;23848;49.798;10.228;2023-04-30T10:38:20;16.40;99.90
26757;DHT22;23848;49.798;10.228;2023-04-30T10:40:59;16.70;99.90
26757;DHT22;23848;49.798;10.228;2023-04-30T10:44:01;16.70;99.90
26757;DHT22;23848;49.798;10.228;2023-04-30T10:46:38;16.70;99.90
26757;DHT22;23848;49.798;10.228;2023-04-30T10:49:11;16.60;99.90
26757;DHT22;23848;49.798;10.228;2023-04-30T10:51:50;16.70;99.90
26757;DHT22;23848;49.798;10.228;2023-04-30T10:54:26;16.80;99.90
26757;DHT22;23848;49.798;10.228;2023-04-30T10:57:37;16.90;99.90
26757;DHT22;23848;49.798;10.228;2023-04-30T11:00:30;17.00;99.90
26757;DHT22;23848;49.798;10.228;2023-04-30T11:03:04;17.10;99.90
26757;DHT22;23848;49.798;10.228;2023-04-30T11:11:18;17.40;99.90
26757;DHT22;23848;49.798;10.228;2023-04-30T11:14:25;17.50;99.90
26757;DHT22;23848;49.798;10.228;2023-04-30T11:20:04;17.60;99.90
26757;DHT22;23848;49.798;10.228;2023-04-30T14:39:00;20.40;99.90
26757;DHT22;23848;49.798;10.228;2023-04-30T15:54:59;19.30;99.90
26757;DHT22;23848;49.798;10.228;2023-04-30T16:01:15;19.60;99.90
26757;DHT22;23848;49.798;10.228;2023-04-30T16:02:13;19.90;99.90
26757;DHT22;23848;49.798;10.228;2023-04-30T16:12:55;20.10;99.90
26757;DHT22;23848;49.798;10.228;2023-04-30T16:20:13;19.80;99.90
26757;DHT22;23848;49.798;10.228;2023-04-30T16:23:59;19.50;99.90
26757;DHT22;23848;49.798;10.228;2023-04-30T16:27:41;19.50;99.90
26757;DHT22;23848;49.798;10.228;2023-04-30T16:49:39;19.20;99.90
26757;DHT22;23848;49.798;10.228;2023-04-30T16:52:42;19.30;99.90
26757;DHT22;23848;49.798;10.228;2023-04-30T16:56:04;19.30;99.90
26757;DHT22;23848;49.798;10.228;2023-04-30T17:06:45;18.90;99.90
26757;DHT22;23848;49.798;10.228;2023-04-30T17:10:15;18.70;99.90
26757;DHT22;23848;49.798;10.228;2023-04-30T17:13:23;18.50;99.90
26757;DHT22;23848;49.798;10.228;2023-04-30T17:16:53;18.40;99.90
26757;DHT22;23848;49.798;10.228;2023-04-30T17:20:05;18.30;99.90
26757;DHT22;23848;49.798;10.228;2023-04-30T17:23:45;18.00;99.90
26757;DHT22;23848;49.798;10.228;2023-04-30T17:30:10;17.90;99.90
26757;DHT22;23848;49.798;10.228;2023-04-30T17:33:23;17.90;99.90
26757;DHT22;23848;49.798;10.228;2023-04-30T17:36:11;17.90;99.90
26757;DHT22;23848;49.798;10.228;2023-04-30T17:39:26;17.90;99.90
26757;DHT22;23848;49.798;10.228;2023-04-30T17:43:11;17.60;99.90
26757;DHT22;23848;49.798;10.228;2023-04-30T17:49:25;17.50;99.90
26757;DHT22;23848;49.798;10.228;2023-04-30T17:52:02;17.50;99.90
26757;DHT22;23848;49.798;10.228;2023-04-30T17:54:53;17.30;99.90
26757;DHT22;23848;49.798;10.228;2023-04-30T17:57:30;17.30;99.90
26757;DHT22;23848;49.798;10.228;2023-04-30T18:00:18;17.10;99.90
26757;DHT22;23848;49.798;10.228;2023-04-30T18:06:53;16.90;99.90
26757;DHT22;23848;49.798;10.228;2023-04-30T18:09:45;17.00;99.90
26757;DHT22;23848;49.798;10.228;2023-04-30T18:12:28;16.70;99.90
26757;DHT22;23848;49.798;10.228;2023-04-30T18:15:11;16.70;99.90
26757;DHT22;23848;49.798;10.228;2023-04-30T18:18:06;16.60;99.90
26757;DHT22;23848;49.798;10.228;2023-04-30T18:20:56;16.60;99.90
26757;DHT22;23848;49.798;10.228;2023-04-30T18:23:35;16.50;99.90
26757;DHT22;23848;49.798;10.228;2023-04-30T18:27:07;16.30;99.90
26757;DHT22;23848;49.798;10.228;2023-04-30T18:30:24;16.20;99.90
26757;DHT22;23848;49.798;10.228;2023-04-30T18:33:08;16.30;99.90
26757;DHT22;23848;49.798;10.228;2023-04-30T18:36:06;15.90;99.90
26757;DHT22;23848;49.798;10.228;2023-04-30T18:38:39;15.90;99.90
26757;DHT22;23848;49.798;10.228;2023-04-30T18:41:18;16.00;99.90
26757;DHT22;23848;49.798;10.228;2023-04-30T18:44:04;15.80;99.90
26757;DHT22;23848;49.798;10.228;2023-04-30T18:46:53;15.80;99.90
26757;DHT22;23848;49.798;10.228;2023-04-30T18:49:35;15.60;99.90
26757;DHT22;23848;49.798;10.228;2023-04-30T18:52:12;15.40;99.90
26757;DHT22;23848;49.798;10.228;2023-04-30T18:54:43;15.40;99.90
26757;DHT22;23848;49.798;10.228;2023-04-30T18:57:11;15.30;99.90
26757;DHT22;23848;49.798;10.228;2023-04-30T18:59:43;15.40;99.90
26757;DHT22;23848;49.798;10.228;2023-04-30T19:02:13;15.50;99.90
26757;DHT22;23848;49.798;10.228;2023-04-30T19:04:48;15.30;99.90
26757;DHT22;23848;49.798;10.228;2023-04-30T19:07:21;15.20;99.90
26757;DHT22;23848;49.798;10.228;2023-04-30T19:09:56;15.10;99.90
26757;DHT22;23848;49.798;10.228;2023-04-30T19:12:25;15.20;99.90
26757;DHT22;23848;49.798;10.228;2023-04-30T19:14:56;14.90;99.90
26757;DHT22;23848;49.798;10.228;2023-04-30T19:17:27;14.90;99.90
26757;DHT22;23848;49.798;10.228;2023-04-30T19:19:58;15.10;99.90
26757;DHT22;23848;49.798;10.228;2023-04-30T19:22:27;14.90;99.90
26757;DHT22;23848;49.798;10.228;2023-04-30T19:24:56;14.80;99.90
26757;DHT22;23848;49.798;10.228;2023-04-30T19:27:24;14.80;99.90
26757;DHT22;23848;49.798;10.228;2023-04-30T19:29:56;14.60;99.90
26757;DHT22;23848;49.798;10.228;2023-04-30T19:32:31;14.70;99.90
26757;DHT22;23848;49.798;10.228;2023-04-30T19:34:59;14.60;99.90
26757;DHT22;23848;49.798;10.228;2023-04-30T19:37:27;14.40;99.90
26757;DHT22;23848;49.798;10.228;2023-04-30T19:39:57;14.40;99.90
26757;DHT22;23848;49.798;10.228;2023-04-30T19:42:25;14.40;99.90
26757;DHT22;23848;49.798;10.228;2023-04-30T19:44:53;14.40;99.90
26757;DHT22;23848;49.798;10.228;2023-04-30T19:47:34;14.20;99.90
26757;DHT22;23848;49.798;10.228;2023-04-30T19:50:05;14.20;99.90
26757;DHT22;23848;49.798;10.228;2023-04-30T19:52:39;14.10;99.90
26757;DHT22;23848;49.798;10.228;2023-04-30T19:55:16;14.10;99.90
26757;DHT22;23848;49.798;10.228;2023-04-30T19:57:48;14.00;99.90
26757;DHT22;23848;49.798;10.228;2023-04-30T20:00:19;14.10;99.90
26757;DHT22;23848;49.798;10.228;2023-04-30T20:02:51;14.00;99.90
26757;DHT22;23848;49.798;10.228;2023-04-30T20:05:25;14.00;99.90
26757;DHT22;23848;49.798;10.228;2023-04-30T20:08:29;13.80;99.90
26757;DHT22;23848;49.798;10.228;2023-04-30T20:14:36;13.50;99.90
26757;DHT22;23848;49.798;10.228;2023-04-30T20:17:30;13.60;99.90
26757;DHT22;23848;49.798;10.228;2023-04-30T20:20:26;13.50;99.90
26757;DHT22;23848;49.798;10.228;2023-04-30T20:23:58;13.60;99.90
26757;DHT22;23848;49.798;10.228;2023-04-30T20:26:55;13.60;99.90
26757;DHT22;23848;49.798;10.228;2023-04-30T20:29:27;13.20;99.90
26757;DHT22;23848;49.798;10.228;2023-04-30T20:31:59;13.40;99.90
26757;DHT22;23848;49.798;10.228;2023-04-30T20:34:31;13.40;99.90
26757;DHT22;23848;49.798;10.228;2023-04-30T20:37:14;13.20;99.90
26757;DHT22;23848;49.798;10.228;2023-04-30T20:39:52;13.20;99.90
26757;DHT22;23848;49.798;10.228;2023-04-30T20:42:28;13.20;99.90
26757;DHT22;23848;49.798;10.228;2023-04-30T20:45:07;13.10;99.90
26757;DHT22;23848;49.798;10.228;2023-04-30T20:47:40;13.10;99.90
26757;DHT22;23848;49.798;10.228;2023-04-30T20:50:22;13.10;99.90
26757;DHT22;23848;49.798;10.228;2023-04-30T20:53:08;13.00;99.90
26757;DHT22;23848;49.798;10.228;2023-04-30T20:55:37;12.90;99.90
26757;DHT22;23848;49.798;10.228;2023-04-30T20:58:10;12.90;99.90
26757;DHT22;23848;49.798;10.228;2023-04-30T21:00:38;12.90;99.90
26757;DHT22;23848;49.798;10.228;2023-04-30T21:03:10;12.80;99.90
26757;DHT22;23848;49.798;10.228;2023-04-30T21:05:41;12.80;99.90
26757;DHT22;23848;49.798;10.228;2023-04-30T21:08:14;12.90;99.90
26757;DHT22;23848;49.798;10.228;2023-04-30T21:10:46;13.10;99.90
26757;DHT22;23848;49.798;10.228;2023-04-30T21:13:15;12.90;99.90
26757;DHT22;23848;49.798;10.228;2023-04-30T21:15:44;12.80;99.90
26757;DHT22;23848;49.798;10.228;2023-04-30T21:18:20;12.80;99.90
26757;DHT22;23848;49.798;10.228;2023-04-30T21:21:01;12.70;99.90
26757;DHT22;23848;49.798;10.228;2023-04-30T21:23:31;12.90;99.90
26757;DHT22;23848;49.798;10.228;2023-04-30T21:25:59;12.60;99.90
26757;DHT22;23848;49.798;10.228;2023-04-30T21:28:34;12.60;99.90
26757;DHT22;23848;49.798;10.228;2023-04-30T21:31:07;12.60;99.90
26757;DHT22;23848;49.798;10.228;2023-04-30T21:33:39;12.60;99.90
26757;DHT22;23848;49.798;10.228;2023-04-30T21:36:07;12.50;99.90
26757;DHT22;23848;49.798;10.228;2023-04-30T21:38:41;12.40;99.90
26757;DHT22;23848;49.798;10.228;2023-04-30T21:41:13;12.40;99.90
26757;DHT22;23848;49.798;10.228;2023-04-30T21:43:42;12.30;99.90
26757;DHT22;23848;49.798;10.228;2023-04-30T21:46:10;12.30;99.90
26757;DHT22;23848;49.798;10.228;2023-04-30T21:48:42;12.20;99.90